sensor_id;sensor_type;location;lat;lon;timestamp;P1;durP1;ratioP1;P2;durP2;ratioP2
24206;SDS011;12351;52.284;9.160;2023-01-29T00:02:20;20.23;;;12.90;;
24206;SDS011;12351;52.284;9.160;2023-01-29T00:05:12;19.57;;;12.80;;
24206;SDS011;12351;52.284;9.160;2023-01-29T00:08:01;18.50;;;13.00;;
24206;SDS011;12351;52.284;9.160;2023-01-29T00:10:51;24.53;;;13.00;;
24206;SDS011;12351;52.284;9.160;2023-01-29T00:13:43;19.83;;;13.07;;
24206;SDS011;12351;52.284;9.160;2023-01-29T00:16:32;17.67;;;12.10;;
24206;SDS011;12351;52.284;9.160;2023-01-29T00:19:24;20.73;;;13.33;;
24206;SDS011;12351;52.284;9.160;2023-01-29T00:22:14;20.77;;;12.37;;
24206;SDS011;12351;52.284;9.160;2023-01-29T00:25:03;19.30;;;12.53;;
24206;SDS011;12351;52.284;9.160;2023-01-29T00:27:54;17.93;;;12.47;;
24206;SDS011;12351;52.284;9.160;2023-01-29T00:30:43;22.27;;;13.20;;
24206;SDS011;12351;52.284;9.160;2023-01-29T00:33:32;19.67;;;13.33;;
24206;SDS011;12351;52.284;9.160;2023-01-29T00:36:24;20.83;;;13.23;;
24206;SDS011;12351;52.284;9.160;2023-01-29T00:39:13;19.67;;;13.33;;
24206;SDS011;12351;52.284;9.160;2023-01-29T00:42:06;20.90;;;13.05;;
24206;SDS011;12351;52.284;9.160;2023-01-29T00:44:56;19.63;;;13.10;;
24206;SDS011;12351;52.284;9.160;2023-01-29T00:47:44;19.80;;;12.67;;
24206;SDS011;12351;52.284;9.160;2023-01-29T00:50:35;20.90;;;12.80;;
24206;SDS011;12351;52.284;9.160;2023-01-29T00:53:31;20.12;;;13.03;;
24206;SDS011;12351;52.284;9.160;2023-01-29T00:56:20;21.97;;;13.87;;
24206;SDS011;12351;52.284;9.160;2023-01-29T00:59:10;20.73;;;13.53;;
24206;SDS011;12351;52.284;9.160;2023-01-29T01:02:03;20.57;;;13.27;;
24206;SDS011;12351;52.284;9.160;2023-01-29T01:04:56;20.83;;;13.67;;
24206;SDS011;12351;52.284;9.160;2023-01-29T01:07:46;22.60;;;14.30;;
24206;SDS011;12351;52.284;9.160;2023-01-29T01:10:35;23.97;;;14.43;;
24206;SDS011;12351;52.284;9.160;2023-01-29T01:13:28;24.80;;;14.73;;
24206;SDS011;12351;52.284;9.160;2023-01-29T01:16:19;21.75;;;14.93;;
24206;SDS011;12351;52.284;9.160;2023-01-29T01:19:09;22.17;;;14.47;;
24206;SDS011;12351;52.284;9.160;2023-01-29T01:21:57;21.63;;;14.07;;
24206;SDS011;12351;52.284;9.160;2023-01-29T01:24:47;21.10;;;12.90;;
24206;SDS011;12351;52.284;9.160;2023-01-29T01:27:36;21.07;;;13.23;;
24206;SDS011;12351;52.284;9.160;2023-01-29T01:30:26;20.20;;;13.27;;
24206;SDS011;12351;52.284;9.160;2023-01-29T01:33:17;21.40;;;13.17;;
24206;SDS011;12351;52.284;9.160;2023-01-29T01:36:05;19.30;;;11.53;;
24206;SDS011;12351;52.284;9.160;2023-01-29T01:38:55;20.23;;;12.50;;
24206;SDS011;12351;52.284;9.160;2023-01-29T01:41:43;22.13;;;12.30;;
24206;SDS011;12351;52.284;9.160;2023-01-29T01:47:25;19.33;;;12.67;;
24206;SDS011;12351;52.284;9.160;2023-01-29T01:53:12;18.47;;;12.13;;
24206;SDS011;12351;52.284;9.160;2023-01-29T01:56:01;20.53;;;12.97;;
24206;SDS011;12351;52.284;9.160;2023-01-29T01:58:51;22.10;;;12.67;;
24206;SDS011;12351;52.284;9.160;2023-01-29T02:01:41;21.57;;;13.27;;
24206;SDS011;12351;52.284;9.160;2023-01-29T02:04:32;19.37;;;12.65;;
24206;SDS011;12351;52.284;9.160;2023-01-29T02:07:23;21.90;;;13.07;;
24206;SDS011;12351;52.284;9.160;2023-01-29T02:10:15;22.82;;;12.98;;
24206;SDS011;12351;52.284;9.160;2023-01-29T02:13:04;18.80;;;12.47;;
24206;SDS011;12351;52.284;9.160;2023-01-29T02:15:57;22.05;;;13.10;;
24206;SDS011;12351;52.284;9.160;2023-01-29T02:18:49;21.03;;;12.43;;
24206;SDS011;12351;52.284;9.160;2023-01-29T02:21:41;20.97;;;12.40;;
24206;SDS011;12351;52.284;9.160;2023-01-29T02:27:18;21.63;;;12.60;;
24206;SDS011;12351;52.284;9.160;2023-01-29T02:30:11;21.23;;;12.77;;
24206;SDS011;12351;52.284;9.160;2023-01-29T02:35:53;19.63;;;12.53;;
24206;SDS011;12351;52.284;9.160;2023-01-29T02:44:23;22.63;;;12.97;;
24206;SDS011;12351;52.284;9.160;2023-01-29T02:50:03;21.60;;;13.57;;
24206;SDS011;12351;52.284;9.160;2023-01-29T02:55:46;19.80;;;12.57;;
24206;SDS011;12351;52.284;9.160;2023-01-29T02:58:37;20.85;;;13.38;;
24206;SDS011;12351;52.284;9.160;2023-01-29T03:01:27;20.43;;;13.47;;
24206;SDS011;12351;52.284;9.160;2023-01-29T03:04:18;22.33;;;12.70;;
24206;SDS011;12351;52.284;9.160;2023-01-29T03:07:07;21.63;;;12.53;;
24206;SDS011;12351;52.284;9.160;2023-01-29T03:12:51;22.20;;;12.95;;
24206;SDS011;12351;52.284;9.160;2023-01-29T03:15:38;22.63;;;12.80;;
24206;SDS011;12351;52.284;9.160;2023-01-29T09:18:19;36.05;;;17.70;;
24206;SDS011;12351;52.284;9.160;2023-01-29T09:21:11;33.03;;;18.20;;
24206;SDS011;12351;52.284;9.160;2023-01-29T09:24:00;36.23;;;18.50;;
24206;SDS011;12351;52.284;9.160;2023-01-29T09:26:51;34.57;;;17.10;;
24206;SDS011;12351;52.284;9.160;2023-01-29T09:29:41;33.57;;;17.00;;
24206;SDS011;12351;52.284;9.160;2023-01-29T09:32:32;34.93;;;17.27;;
24206;SDS011;12351;52.284;9.160;2023-01-29T09:35:24;34.67;;;18.23;;
24206;SDS011;12351;52.284;9.160;2023-01-29T09:38:14;29.83;;;16.33;;
24206;SDS011;12351;52.284;9.160;2023-01-29T09:41:07;31.07;;;17.40;;
24206;SDS011;12351;52.284;9.160;2023-01-29T09:43:59;35.60;;;18.73;;
24206;SDS011;12351;52.284;9.160;2023-01-29T09:46:46;34.13;;;17.50;;
24206;SDS011;12351;52.284;9.160;2023-01-29T09:49:38;34.40;;;18.70;;
24206;SDS011;12351;52.284;9.160;2023-01-29T09:52:29;37.40;;;19.63;;
24206;SDS011;12351;52.284;9.160;2023-01-29T09:55:21;33.67;;;18.47;;
24206;SDS011;12351;52.284;9.160;2023-01-29T09:58:11;34.80;;;18.82;;
24206;SDS011;12351;52.284;9.160;2023-01-29T10:03:54;35.37;;;18.77;;
24206;SDS011;12351;52.284;9.160;2023-01-29T10:09:55;35.17;;;19.47;;
24206;SDS011;12351;52.284;9.160;2023-01-29T10:21:06;35.40;;;19.80;;
24206;SDS011;12351;52.284;9.160;2023-01-29T10:23:52;34.03;;;20.37;;
24206;SDS011;12351;52.284;9.160;2023-01-29T10:26:40;33.53;;;19.63;;
24206;SDS011;12351;52.284;9.160;2023-01-29T10:29:30;40.87;;;20.83;;
24206;SDS011;12351;52.284;9.160;2023-01-29T10:32:23;37.57;;;21.20;;
24206;SDS011;12351;52.284;9.160;2023-01-29T10:35:16;37.53;;;21.25;;
24206;SDS011;12351;52.284;9.160;2023-01-29T10:40:56;41.50;;;21.70;;
24206;SDS011;12351;52.284;9.160;2023-01-29T10:46:35;39.27;;;22.37;;
24206;SDS011;12351;52.284;9.160;2023-01-29T11:00:35;38.70;;;22.20;;
24206;SDS011;12351;52.284;9.160;2023-01-29T11:03:26;38.00;;;21.47;;
24206;SDS011;12351;52.284;9.160;2023-01-29T11:09:08;39.70;;;22.13;;
24206;SDS011;12351;52.284;9.160;2023-01-29T11:14:50;39.87;;;21.70;;
24206;SDS011;12351;52.284;9.160;2023-01-29T11:17:37;37.77;;;20.57;;
24206;SDS011;12351;52.284;9.160;2023-01-29T11:20:27;34.43;;;20.00;;
24206;SDS011;12351;52.284;9.160;2023-01-29T11:26:11;40.87;;;23.17;;
24206;SDS011;12351;52.284;9.160;2023-01-29T11:28:59;38.33;;;20.47;;
24206;SDS011;12351;52.284;9.160;2023-01-29T11:31:48;39.43;;;21.27;;
24206;SDS011;12351;52.284;9.160;2023-01-29T11:37:31;35.67;;;20.27;;
24206;SDS011;12351;52.284;9.160;2023-01-29T11:46:04;37.27;;;20.17;;
24206;SDS011;12351;52.284;9.160;2023-01-29T11:48:54;28.00;;;15.13;;
24206;SDS011;12351;52.284;9.160;2023-01-29T11:51:42;35.00;;;19.37;;
24206;SDS011;12351;52.284;9.160;2023-01-29T11:54:33;35.93;;;19.73;;
24206;SDS011;12351;52.284;9.160;2023-01-29T12:08:42;38.03;;;20.77;;
24206;SDS011;12351;52.284;9.160;2023-01-29T12:11:33;33.45;;;17.10;;
24206;SDS011;12351;52.284;9.160;2023-01-29T12:17:15;32.50;;;18.60;;
24206;SDS011;12351;52.284;9.160;2023-01-29T12:20:05;35.57;;;18.53;;
24206;SDS011;12351;52.284;9.160;2023-01-29T12:22:56;35.33;;;18.97;;
24206;SDS011;12351;52.284;9.160;2023-01-29T12:25:48;34.83;;;18.87;;
24206;SDS011;12351;52.284;9.160;2023-01-29T12:28:38;31.80;;;18.27;;
24206;SDS011;12351;52.284;9.160;2023-01-29T12:34:19;35.23;;;19.23;;
24206;SDS011;12351;52.284;9.160;2023-01-29T12:37:10;31.40;;;18.03;;
24206;SDS011;12351;52.284;9.160;2023-01-29T12:39:55;34.60;;;18.90;;
24206;SDS011;12351;52.284;9.160;2023-01-29T12:45:33;30.97;;;17.23;;
24206;SDS011;12351;52.284;9.160;2023-01-29T12:48:25;30.40;;;18.17;;
24206;SDS011;12351;52.284;9.160;2023-01-29T12:51:14;32.63;;;18.57;;
24206;SDS011;12351;52.284;9.160;2023-01-29T12:54:05;30.87;;;17.47;;
24206;SDS011;12351;52.284;9.160;2023-01-29T12:56:55;33.03;;;18.47;;
24206;SDS011;12351;52.284;9.160;2023-01-29T12:59:46;30.50;;;17.27;;
24206;SDS011;12351;52.284;9.160;2023-01-29T13:02:38;32.60;;;18.13;;
24206;SDS011;12351;52.284;9.160;2023-01-29T13:08:18;33.27;;;18.70;;
24206;SDS011;12351;52.284;9.160;2023-01-29T13:11:09;31.47;;;16.93;;
24206;SDS011;12351;52.284;9.160;2023-01-29T13:13:58;28.73;;;16.43;;
24206;SDS011;12351;52.284;9.160;2023-01-29T13:16:48;33.23;;;18.77;;
24206;SDS011;12351;52.284;9.160;2023-01-29T13:19:37;36.90;;;19.97;;
24206;SDS011;12351;52.284;9.160;2023-01-29T13:22:26;35.57;;;18.97;;
24206;SDS011;12351;52.284;9.160;2023-01-29T13:25:19;34.70;;;19.52;;
24206;SDS011;12351;52.284;9.160;2023-01-29T13:28:15;36.07;;;19.37;;
24206;SDS011;12351;52.284;9.160;2023-01-29T13:36:38;39.07;;;19.87;;
24206;SDS011;12351;52.284;9.160;2023-01-29T13:39:27;35.60;;;19.50;;
24206;SDS011;12351;52.284;9.160;2023-01-29T13:42:19;33.33;;;18.77;;
24206;SDS011;12351;52.284;9.160;2023-01-29T13:45:07;35.73;;;18.13;;
24206;SDS011;12351;52.284;9.160;2023-01-29T13:48:07;36.03;;;19.87;;
24206;SDS011;12351;52.284;9.160;2023-01-29T13:50:46;33.50;;;18.23;;
24206;SDS011;12351;52.284;9.160;2023-01-29T13:53:34;35.63;;;19.57;;
24206;SDS011;12351;52.284;9.160;2023-01-29T14:02:03;36.43;;;19.87;;
24206;SDS011;12351;52.284;9.160;2023-01-29T14:05:58;34.23;;;19.20;;
24206;SDS011;12351;52.284;9.160;2023-01-29T14:10:36;34.60;;;19.33;;
24206;SDS011;12351;52.284;9.160;2023-01-29T14:18:52;33.27;;;19.03;;
24206;SDS011;12351;52.284;9.160;2023-01-29T14:21:40;35.90;;;20.43;;
24206;SDS011;12351;52.284;9.160;2023-01-29T14:24:30;31.00;;;18.73;;
24206;SDS011;12351;52.284;9.160;2023-01-29T14:27:18;35.37;;;17.70;;
24206;SDS011;12351;52.284;9.160;2023-01-29T14:30:12;34.23;;;18.67;;
24206;SDS011;12351;52.284;9.160;2023-01-29T14:33:00;32.53;;;19.00;;
24206;SDS011;12351;52.284;9.160;2023-01-29T14:35:49;35.00;;;19.13;;
24206;SDS011;12351;52.284;9.160;2023-01-29T14:38:45;35.47;;;19.67;;
24206;SDS011;12351;52.284;9.160;2023-01-29T14:41:30;35.73;;;19.03;;
24206;SDS011;12351;52.284;9.160;2023-01-29T14:50:00;31.33;;;17.83;;
24206;SDS011;12351;52.284;9.160;2023-01-29T14:52:50;31.73;;;17.63;;
24206;SDS011;12351;52.284;9.160;2023-01-29T15:01:21;33.97;;;19.00;;
24206;SDS011;12351;52.284;9.160;2023-01-29T15:04:15;27.32;;;13.98;;
24206;SDS011;12351;52.284;9.160;2023-01-29T15:07:05;33.70;;;18.30;;
24206;SDS011;12351;52.284;9.160;2023-01-29T15:09:56;30.80;;;18.03;;
24206;SDS011;12351;52.284;9.160;2023-01-29T15:15:28;31.80;;;17.93;;
24206;SDS011;12351;52.284;9.160;2023-01-29T15:21:04;32.55;;;17.77;;
24206;SDS011;12351;52.284;9.160;2023-01-29T15:24:02;32.97;;;17.53;;
24206;SDS011;12351;52.284;9.160;2023-01-29T15:26:43;30.80;;;16.93;;
24206;SDS011;12351;52.284;9.160;2023-01-29T15:29:32;38.27;;;17.40;;
24206;SDS011;12351;52.284;9.160;2023-01-29T15:32:24;31.57;;;16.73;;
24206;SDS011;12351;52.284;9.160;2023-01-29T15:40:49;29.87;;;16.67;;
24206;SDS011;12351;52.284;9.160;2023-01-29T15:43:34;31.70;;;17.70;;
24206;SDS011;12351;52.284;9.160;2023-01-29T15:46:23;34.70;;;17.63;;
24206;SDS011;12351;52.284;9.160;2023-01-29T15:49:14;33.40;;;17.80;;
24206;SDS011;12351;52.284;9.160;2023-01-29T15:54:50;36.17;;;18.73;;
24206;SDS011;12351;52.284;9.160;2023-01-29T15:57:39;37.30;;;19.07;;
24206;SDS011;12351;52.284;9.160;2023-01-29T16:00:30;36.27;;;19.13;;
24206;SDS011;12351;52.284;9.160;2023-01-29T16:03:20;37.13;;;20.07;;
24206;SDS011;12351;52.284;9.160;2023-01-29T16:06:08;35.57;;;18.70;;
24206;SDS011;12351;52.284;9.160;2023-01-29T16:08:55;35.40;;;18.83;;
24206;SDS011;12351;52.284;9.160;2023-01-29T16:11:44;37.27;;;19.80;;
24206;SDS011;12351;52.284;9.160;2023-01-29T16:14:32;35.43;;;19.67;;
24206;SDS011;12351;52.284;9.160;2023-01-29T16:20:20;37.87;;;20.23;;
24206;SDS011;12351;52.284;9.160;2023-01-29T16:22:59;37.87;;;21.30;;
24206;SDS011;12351;52.284;9.160;2023-01-29T16:25:48;37.13;;;20.40;;
24206;SDS011;12351;52.284;9.160;2023-01-29T16:31:26;38.43;;;21.63;;
24206;SDS011;12351;52.284;9.160;2023-01-29T16:34:17;41.67;;;21.70;;
24206;SDS011;12351;52.284;9.160;2023-01-29T16:37:05;37.17;;;20.70;;
24206;SDS011;12351;52.284;9.160;2023-01-29T16:39:54;35.40;;;20.43;;
24206;SDS011;12351;52.284;9.160;2023-01-29T16:42:42;35.43;;;20.50;;
24206;SDS011;12351;52.284;9.160;2023-01-29T16:45:29;38.50;;;20.53;;
24206;SDS011;12351;52.284;9.160;2023-01-29T16:53:59;36.63;;;20.80;;
24206;SDS011;12351;52.284;9.160;2023-01-29T16:56:48;38.37;;;20.07;;
24206;SDS011;12351;52.284;9.160;2023-01-29T16:59:37;35.10;;;19.60;;
24206;SDS011;12351;52.284;9.160;2023-01-29T17:10:59;36.80;;;19.20;;
24206;SDS011;12351;52.284;9.160;2023-01-29T17:13:47;31.57;;;19.30;;
24206;SDS011;12351;52.284;9.160;2023-01-29T17:16:47;33.30;;;19.10;;
24206;SDS011;12351;52.284;9.160;2023-01-29T17:19:27;32.93;;;18.57;;
24206;SDS011;12351;52.284;9.160;2023-01-29T17:22:14;36.10;;;19.90;;
24206;SDS011;12351;52.284;9.160;2023-01-29T17:25:01;36.00;;;20.00;;
24206;SDS011;12351;52.284;9.160;2023-01-29T17:27:48;33.33;;;19.17;;
24206;SDS011;12351;52.284;9.160;2023-01-29T17:30:37;34.30;;;19.43;;
24206;SDS011;12351;52.284;9.160;2023-01-29T17:33:24;30.70;;;18.07;;
24206;SDS011;12351;52.284;9.160;2023-01-29T17:36:12;32.73;;;18.73;;
24206;SDS011;12351;52.284;9.160;2023-01-29T17:39:00;30.67;;;18.80;;
24206;SDS011;12351;52.284;9.160;2023-01-29T17:41:50;32.07;;;18.20;;
24206;SDS011;12351;52.284;9.160;2023-01-29T17:44:40;36.13;;;20.10;;
24206;SDS011;12351;52.284;9.160;2023-01-29T17:47:30;31.67;;;18.37;;
24206;SDS011;12351;52.284;9.160;2023-01-29T17:50:21;32.53;;;18.80;;
24206;SDS011;12351;52.284;9.160;2023-01-29T17:53:09;38.40;;;18.27;;
24206;SDS011;12351;52.284;9.160;2023-01-29T17:55:57;32.67;;;19.13;;
24206;SDS011;12351;52.284;9.160;2023-01-29T17:58:44;34.70;;;19.60;;
24206;SDS011;12351;52.284;9.160;2023-01-29T18:01:30;35.33;;;18.80;;
24206;SDS011;12351;52.284;9.160;2023-01-29T18:04:17;34.73;;;18.27;;
24206;SDS011;12351;52.284;9.160;2023-01-29T18:07:05;34.27;;;18.03;;
24206;SDS011;12351;52.284;9.160;2023-01-29T18:09:51;34.83;;;19.53;;
24206;SDS011;12351;52.284;9.160;2023-01-29T18:12:39;30.97;;;18.33;;
24206;SDS011;12351;52.284;9.160;2023-01-29T18:15:27;34.83;;;18.93;;
24206;SDS011;12351;52.284;9.160;2023-01-29T18:18:18;36.57;;;19.13;;
24206;SDS011;12351;52.284;9.160;2023-01-29T18:21:06;35.53;;;18.23;;
24206;SDS011;12351;52.284;9.160;2023-01-29T18:23:56;34.40;;;19.17;;
24206;SDS011;12351;52.284;9.160;2023-01-29T18:26:42;33.03;;;18.97;;
24206;SDS011;12351;52.284;9.160;2023-01-29T18:29:31;34.53;;;19.60;;
24206;SDS011;12351;52.284;9.160;2023-01-29T18:32:19;33.30;;;19.13;;
24206;SDS011;12351;52.284;9.160;2023-01-29T18:35:07;31.77;;;18.37;;
24206;SDS011;12351;52.284;9.160;2023-01-29T18:37:56;35.77;;;18.90;;
24206;SDS011;12351;52.284;9.160;2023-01-29T18:40:41;35.67;;;19.63;;
24206;SDS011;12351;52.284;9.160;2023-01-29T18:43:29;32.77;;;18.30;;
24206;SDS011;12351;52.284;9.160;2023-01-29T18:46:17;31.77;;;17.80;;
24206;SDS011;12351;52.284;9.160;2023-01-29T18:49:08;37.17;;;21.43;;
24206;SDS011;12351;52.284;9.160;2023-01-29T18:51:54;33.00;;;18.03;;
24206;SDS011;12351;52.284;9.160;2023-01-29T18:54:42;31.03;;;17.27;;
24206;SDS011;12351;52.284;9.160;2023-01-29T18:57:28;31.70;;;16.70;;
24206;SDS011;12351;52.284;9.160;2023-01-29T19:00:16;28.50;;;16.33;;
24206;SDS011;12351;52.284;9.160;2023-01-29T19:03:04;29.20;;;17.60;;
24206;SDS011;12351;52.284;9.160;2023-01-29T19:05:52;28.60;;;17.23;;
24206;SDS011;12351;52.284;9.160;2023-01-29T19:08:41;30.23;;;16.70;;
24206;SDS011;12351;52.284;9.160;2023-01-29T19:11:29;31.77;;;17.43;;
24206;SDS011;12351;52.284;9.160;2023-01-29T19:14:15;30.13;;;16.30;;
24206;SDS011;12351;52.284;9.160;2023-01-29T19:17:06;30.97;;;17.37;;
24206;SDS011;12351;52.284;9.160;2023-01-29T19:19:55;28.87;;;17.00;;
24206;SDS011;12351;52.284;9.160;2023-01-29T19:22:46;26.80;;;15.63;;
24206;SDS011;12351;52.284;9.160;2023-01-29T19:28:25;27.43;;;16.60;;
24206;SDS011;12351;52.284;9.160;2023-01-29T19:31:14;29.53;;;16.30;;
24206;SDS011;12351;52.284;9.160;2023-01-29T19:34:06;30.03;;;15.93;;
24206;SDS011;12351;52.284;9.160;2023-01-29T19:36:56;30.50;;;15.50;;
24206;SDS011;12351;52.284;9.160;2023-01-29T19:39:46;25.80;;;15.43;;
24206;SDS011;12351;52.284;9.160;2023-01-29T19:42:34;26.77;;;15.60;;
24206;SDS011;12351;52.284;9.160;2023-01-29T19:45:23;29.00;;;16.47;;
24206;SDS011;12351;52.284;9.160;2023-01-29T19:48:13;28.27;;;15.90;;
24206;SDS011;12351;52.284;9.160;2023-01-29T19:51:05;29.50;;;16.67;;
24206;SDS011;12351;52.284;9.160;2023-01-29T19:53:56;32.23;;;17.57;;
24206;SDS011;12351;52.284;9.160;2023-01-29T19:56:47;29.60;;;16.80;;
24206;SDS011;12351;52.284;9.160;2023-01-29T19:59:36;29.23;;;16.73;;
24206;SDS011;12351;52.284;9.160;2023-01-29T20:02:25;30.97;;;16.70;;
24206;SDS011;12351;52.284;9.160;2023-01-29T20:05:17;34.60;;;17.57;;
24206;SDS011;12351;52.284;9.160;2023-01-29T20:08:08;30.13;;;16.60;;
24206;SDS011;12351;52.284;9.160;2023-01-29T20:11:00;30.10;;;16.57;;
24206;SDS011;12351;52.284;9.160;2023-01-29T20:13:51;31.00;;;17.03;;
24206;SDS011;12351;52.284;9.160;2023-01-29T20:16:37;30.30;;;16.47;;
24206;SDS011;12351;52.284;9.160;2023-01-29T20:19:27;36.80;;;17.90;;
24206;SDS011;12351;52.284;9.160;2023-01-29T20:22:18;30.08;;;17.17;;
24206;SDS011;12351;52.284;9.160;2023-01-29T20:25:09;29.63;;;16.33;;
24206;SDS011;12351;52.284;9.160;2023-01-29T20:28:02;22.30;;;13.17;;
24206;SDS011;12351;52.284;9.160;2023-01-29T20:30:53;33.40;;;17.50;;
24206;SDS011;12351;52.284;9.160;2023-01-29T20:33:44;30.60;;;17.07;;
24206;SDS011;12351;52.284;9.160;2023-01-29T20:36:33;34.07;;;18.83;;
24206;SDS011;12351;52.284;9.160;2023-01-29T20:39:23;31.00;;;17.23;;
24206;SDS011;12351;52.284;9.160;2023-01-29T20:42:17;29.63;;;17.47;;
24206;SDS011;12351;52.284;9.160;2023-01-29T20:45:06;33.67;;;18.40;;
24206;SDS011;12351;52.284;9.160;2023-01-29T20:47:56;29.67;;;17.47;;
24206;SDS011;12351;52.284;9.160;2023-01-29T20:50:46;36.70;;;17.37;;
24206;SDS011;12351;52.284;9.160;2023-01-29T20:53:35;33.83;;;17.43;;
24206;SDS011;12351;52.284;9.160;2023-01-29T20:56:27;32.13;;;17.70;;
24206;SDS011;12351;52.284;9.160;2023-01-29T20:59:15;31.47;;;17.43;;
24206;SDS011;12351;52.284;9.160;2023-01-29T21:02:07;31.27;;;16.60;;
24206;SDS011;12351;52.284;9.160;2023-01-29T21:04:58;31.23;;;18.30;;
24206;SDS011;12351;52.284;9.160;2023-01-29T21:07:49;30.32;;;17.87;;
24206;SDS011;12351;52.284;9.160;2023-01-29T21:10:40;31.67;;;17.00;;
24206;SDS011;12351;52.284;9.160;2023-01-29T21:13:30;31.02;;;17.05;;
24206;SDS011;12351;52.284;9.160;2023-01-29T21:16:20;32.10;;;17.53;;
24206;SDS011;12351;52.284;9.160;2023-01-29T21:19:12;33.60;;;17.77;;
24206;SDS011;12351;52.284;9.160;2023-01-29T21:22:02;31.10;;;17.00;;
24206;SDS011;12351;52.284;9.160;2023-01-29T21:24:54;30.60;;;17.63;;
24206;SDS011;12351;52.284;9.160;2023-01-29T21:27:44;32.07;;;17.60;;
24206;SDS011;12351;52.284;9.160;2023-01-29T21:30:34;30.43;;;17.57;;
24206;SDS011;12351;52.284;9.160;2023-01-29T21:33:24;35.33;;;18.97;;
24206;SDS011;12351;52.284;9.160;2023-01-29T21:36:15;34.20;;;17.60;;
24206;SDS011;12351;52.284;9.160;2023-01-29T21:39:04;33.43;;;17.83;;
24206;SDS011;12351;52.284;9.160;2023-01-29T21:41:55;33.30;;;18.13;;
24206;SDS011;12351;52.284;9.160;2023-01-29T21:44:49;31.23;;;17.15;;
24206;SDS011;12351;52.284;9.160;2023-01-29T21:47:39;32.20;;;17.80;;
24206;SDS011;12351;52.284;9.160;2023-01-29T21:50:29;35.13;;;18.67;;
24206;SDS011;12351;52.284;9.160;2023-01-29T21:53:20;31.87;;;18.20;;
24206;SDS011;12351;52.284;9.160;2023-01-29T21:56:14;31.27;;;17.90;;
24206;SDS011;12351;52.284;9.160;2023-01-29T21:59:06;37.17;;;18.37;;
24206;SDS011;12351;52.284;9.160;2023-01-29T22:01:54;34.10;;;19.07;;
24206;SDS011;12351;52.284;9.160;2023-01-29T22:04:45;39.90;;;18.63;;
24206;SDS011;12351;52.284;9.160;2023-01-29T22:07:35;35.30;;;18.87;;
24206;SDS011;12351;52.284;9.160;2023-01-29T22:10:27;36.70;;;18.85;;
24206;SDS011;12351;52.284;9.160;2023-01-29T22:13:17;33.53;;;18.47;;
24206;SDS011;12351;52.284;9.160;2023-01-29T22:16:08;33.33;;;18.57;;
24206;SDS011;12351;52.284;9.160;2023-01-29T22:18:58;33.27;;;18.83;;
24206;SDS011;12351;52.284;9.160;2023-01-29T22:21:47;35.93;;;19.00;;
24206;SDS011;12351;52.284;9.160;2023-01-29T22:24:40;34.17;;;18.87;;
24206;SDS011;12351;52.284;9.160;2023-01-29T22:27:30;36.40;;;19.83;;
24206;SDS011;12351;52.284;9.160;2023-01-29T22:30:20;34.43;;;18.53;;
24206;SDS011;12351;52.284;9.160;2023-01-29T22:33:09;34.35;;;18.60;;
24206;SDS011;12351;52.284;9.160;2023-01-29T22:36:00;31.00;;;18.10;;
24206;SDS011;12351;52.284;9.160;2023-01-29T22:38:51;35.03;;;19.33;;
24206;SDS011;12351;52.284;9.160;2023-01-29T22:41:42;36.43;;;19.57;;
24206;SDS011;12351;52.284;9.160;2023-01-29T22:44:31;30.33;;;18.47;;
24206;SDS011;12351;52.284;9.160;2023-01-29T22:47:24;35.97;;;18.97;;
24206;SDS011;12351;52.284;9.160;2023-01-29T22:50:14;35.25;;;20.02;;
24206;SDS011;12351;52.284;9.160;2023-01-29T22:53:04;35.20;;;18.83;;
24206;SDS011;12351;52.284;9.160;2023-01-29T22:55:55;38.25;;;18.82;;
24206;SDS011;12351;52.284;9.160;2023-01-29T23:01:35;38.53;;;19.93;;
24206;SDS011;12351;52.284;9.160;2023-01-29T23:04:24;38.07;;;19.90;;
24206;SDS011;12351;52.284;9.160;2023-01-29T23:07:14;36.43;;;20.37;;
24206;SDS011;12351;52.284;9.160;2023-01-29T23:10:03;38.07;;;19.20;;
24206;SDS011;12351;52.284;9.160;2023-01-29T23:12:54;37.13;;;19.87;;
24206;SDS011;12351;52.284;9.160;2023-01-29T23:15:41;37.57;;;18.17;;
24206;SDS011;12351;52.284;9.160;2023-01-29T23:18:31;37.53;;;19.40;;
24206;SDS011;12351;52.284;9.160;2023-01-29T23:21:21;39.43;;;20.37;;
24206;SDS011;12351;52.284;9.160;2023-01-29T23:24:13;37.30;;;20.17;;
24206;SDS011;12351;52.284;9.160;2023-01-29T23:27:03;41.47;;;20.03;;
24206;SDS011;12351;52.284;9.160;2023-01-29T23:29:55;39.10;;;18.77;;
24206;SDS011;12351;52.284;9.160;2023-01-29T23:32:47;37.23;;;19.67;;
24206;SDS011;12351;52.284;9.160;2023-01-29T23:35:36;37.97;;;19.63;;
24206;SDS011;12351;52.284;9.160;2023-01-29T23:38:26;36.37;;;19.90;;
24206;SDS011;12351;52.284;9.160;2023-01-29T23:41:16;37.70;;;19.33;;
24206;SDS011;12351;52.284;9.160;2023-01-29T23:44:08;38.97;;;19.77;;
24206;SDS011;12351;52.284;9.160;2023-01-29T23:46:59;41.47;;;19.87;;
24206;SDS011;12351;52.284;9.160;2023-01-29T23:49:47;35.43;;;18.90;;
24206;SDS011;12351;52.284;9.160;2023-01-29T23:52:36;38.97;;;21.20;;
24206;SDS011;12351;52.284;9.160;2023-01-29T23:55:25;38.83;;;20.67;;
24206;SDS011;12351;52.284;9.160;2023-01-29T23:58:17;38.60;;;19.63;;
